Terminal Aerodrome Forecast
Issued by NWS

Home | Current Version | Previous Version | Graphics & Text | Print | Product List | Glossary On
Versions: 1 2 3 4 5 6 7 8 9 10 11 12 13 14 15 16 17 18 19 20 21 22 23 24 25 26 27 28 29
522
FTUS43 KLOT 301503 AAA
TAFMDW
TAF AMD
KMDW 301503Z 3015/0112 08014G22KT P6SM -SHRA BKN030 OVC070
     FM301900 07017G25KT 4SM RA BR OVC008
     FM010200 05012KT 2SM -RADZ BR OVC005=

USA.gov is the U.S. government's official web portal to all federal, state and local government web resources and services.